Time;durP1;ratioP1;P1;durP2;ratioP2;P2;SDS_P1;SDS_P2;PMS_P1;PMS_P2;Temp;Humidity;BMP_temperature;BMP_pressure;BME280_temperature;BME280_humidity;BME280_pressure;Samples;Min_cycle;Max_cycle;Signal;HPM_P1;HPM_P2
2022/06/14 00:03:13;;;;;;;3.73;2.13;;;;;;;;;;5085198;28;20182;-78
2022/06/14 00:06:29;;;;;;;4.97;2.40;;;;;;;;;;5084556;28;20183;-76
2022/06/14 00:09:33;;;;;;;6.33;2.33;;;;;;;;;;5072836;28;20183;-77
2022/06/14 00:12:37;;;;;;;4.80;2.47;;;;;;;;;;5095580;28;20206;-77
2022/06/14 00:15:42;;;;;;;7.13;2.30;;;;;;;;;;5095505;28;20178;-77
2022/06/14 00:18:46;;;;;;;3.60;2.70;;;;;;;;;;5095617;28;20175;-77
2022/06/14 00:21:50;;;;;;;4.30;2.50;;;;;;;;;;5095730;28;20202;-77
2022/06/14 00:24:55;;;;;;;3.43;2.20;;;;;;;;;;5096225;28;20190;-77
2022/06/14 00:28:01;;;;;;;7.30;2.43;;;;;;;;;;5072239;28;20538;-77
2022/06/14 00:31:15;;;;;;;6.77;2.30;;;;;;;;;;5072223;28;20226;-77
2022/06/14 00:34:19;;;;;;;5.10;2.47;;;;;;;;;;5083692;28;20175;-77
2022/06/14 00:37:23;;;;;;;4.17;2.60;;;;;;;;;;5083941;28;20577;-77
2022/06/14 00:40:30;;;;;;;6.37;2.17;;;;;;;;;;5095083;28;20179;-77
2022/06/14 00:43:34;;;;;;;4.80;2.73;;;;;;;;;;5094687;28;20186;-77
2022/06/14 00:46:48;;;;;;;4.97;2.40;;;;;;;;;;5083435;28;20515;-77
2022/06/14 00:50:00;;;;;;;5.17;2.47;;;;;;;;;;5095228;28;20555;-77
2022/06/14 00:53:14;;;;;;;5.00;2.60;;;;;;;;;;5095586;28;20179;-77
2022/06/14 00:56:25;;;;;;;5.70;2.60;;;;;;;;;;5095742;28;20171;-76
2022/06/14 00:59:38;;;;;;;4.30;2.67;;;;;;;;;;5082980;28;20183;-77
2022/06/14 01:02:54;;;;;;;4.17;2.80;;;;;;;;;;5083693;28;20211;-77
2022/06/14 01:06:29;;;;;;;5.87;3.10;;;;;;;;;;5095283;28;20187;-77
2022/06/14 01:09:38;;;;;;;5.90;2.87;;;;;;;;;;5084059;28;20174;-78
2022/06/14 01:12:45;;;;;;;4.93;2.70;;;;;;;;;;5083869;28;20226;-77
2022/06/14 01:15:53;;;;;;;6.37;3.00;;;;;;;;;;5084529;28;20187;-77
2022/06/14 01:18:58;;;;;;;3.90;2.83;;;;;;;;;;5084174;28;20179;-77
2022/06/14 01:22:02;;;;;;;6.53;2.70;;;;;;;;;;5084392;28;20206;-77
2022/06/14 01:25:08;;;;;;;4.60;2.73;;;;;;;;;;5095923;28;20182;-77
2022/06/14 01:28:15;;;;;;;6.67;2.80;;;;;;;;;;5095996;28;20183;-77
2022/06/14 01:31:22;;;;;;;4.13;2.80;;;;;;;;;;5072663;28;20222;-77
2022/06/14 01:34:30;;;;;;;4.90;3.50;;;;;;;;;;5096925;28;20507;-77
2022/06/14 01:37:35;;;;;;;6.60;2.73;;;;;;;;;;5072639;28;20175;-78
2022/06/14 01:41:02;;;;;;;4.13;2.80;;;;;;;;;;5084073;28;20183;-77
2022/06/14 01:44:41;;;;;;;4.90;3.13;;;;;;;;;;5083113;28;20183;-77
2022/06/14 01:47:58;;;;;;;3.90;2.50;;;;;;;;;;5072395;28;20183;-77
2022/06/14 01:54:55;;;;;;;6.03;3.00;;;;;;;;;;5083681;28;20174;-77
2022/06/14 01:58:09;;;;;;;9.10;2.80;;;;;;;;;;5083761;28;20520;-77
2022/06/14 02:01:34;;;;;;;4.27;2.77;;;;;;;;;;5083760;28;20407;-77
2022/06/14 02:05:03;;;;;;;6.50;3.00;;;;;;;;;;5094548;28;20543;-77
2022/06/14 02:08:18;;;;;;;7.67;3.10;;;;;;;;;;5082492;28;20590;-77
2022/06/14 02:11:30;;;;;;;4.87;2.77;;;;;;;;;;5071390;28;20222;-77
2022/06/14 02:14:43;;;;;;;2.93;2.40;;;;;;;;;;5072101;28;20191;-77
2022/06/14 02:18:03;;;;;;;4.93;2.80;;;;;;;;;;5094845;28;20182;-77
2022/06/14 02:21:19;;;;;;;3.53;2.70;;;;;;;;;;5083253;28;20210;-76
2022/06/14 02:24:28;;;;;;;5.57;2.67;;;;;;;;;;5083309;28;20175;-77
2022/06/14 02:27:45;;;;;;;3.23;2.93;;;;;;;;;;5094053;28;20175;-77
2022/06/14 02:30:56;;;;;;;4.27;2.73;;;;;;;;;;5095077;28;20211;-77
2022/06/14 02:34:06;;;;;;;5.47;2.73;;;;;;;;;;5093815;28;20194;-77
2022/06/14 02:37:29;;;;;;;6.63;3.17;;;;;;;;;;5093931;28;20183;-77
2022/06/14 02:40:39;;;;;;;5.33;3.20;;;;;;;;;;5082319;28;20626;-77
2022/06/14 02:43:45;;;;;;;6.77;2.90;;;;;;;;;;5094220;28;20527;-77
2022/06/14 02:47:00;;;;;;;6.63;3.07;;;;;;;;;;5093426;28;20187;-77
2022/06/14 02:50:13;;;;;;;6.00;3.20;;;;;;;;;;5093694;28;20179;-77
2022/06/14 02:53:24;;;;;;;4.57;3.30;;;;;;;;;;5082571;28;20198;-77
2022/06/14 02:56:39;;;;;;;4.17;2.60;;;;;;;;;;5086514;28;20187;-77
2022/06/14 03:00:10;;;;;;;5.47;3.20;;;;;;;;;;5086694;28;20518;-78
2022/06/14 03:03:24;;;;;;;4.27;2.70;;;;;;;;;;5074437;28;20174;-77
2022/06/14 03:06:31;;;;;;;4.90;3.20;;;;;;;;;;5074709;28;20175;-77
2022/06/14 03:09:36;;;;;;;4.97;3.13;;;;;;;;;;5098338;28;20194;-77
2022/06/14 03:13:02;;;;;;;5.23;3.20;;;;;;;;;;5098042;28;20218;-77
2022/06/14 03:16:36;;;;;;;7.33;3.57;;;;;;;;;;5098048;28;20183;-78
2022/06/14 03:19:57;;;;;;;8.23;3.03;;;;;;;;;;5097910;28;20186;-77
2022/06/14 03:23:05;;;;;;;6.10;3.00;;;;;;;;;;5086662;28;20171;-77
2022/06/14 03:26:31;;;;;;;4.60;3.10;;;;;;;;;;5097747;28;20175;-77
2022/06/14 03:29:47;;;;;;;6.37;3.57;;;;;;;;;;5085771;28;20183;-77
2022/06/14 03:33:00;;;;;;;3.70;3.20;;;;;;;;;;5086054;28;20219;-78
2022/06/14 03:36:06;;;;;;;5.60;3.53;;;;;;;;;;5097432;28;20638;-77
2022/06/14 03:39:19;;;;;;;6.57;4.27;;;;;;;;;;5086087;28;20174;-78
2022/06/14 03:42:23;;;;;;;4.37;3.43;;;;;;;;;;5085844;28;20210;-77
2022/06/14 03:45:41;;;;;;;7.00;3.53;;;;;;;;;;5086129;28;20179;-77
2022/06/14 03:48:48;;;;;;;4.37;3.37;;;;;;;;;;5085777;28;20183;-77
2022/06/14 03:52:02;;;;;;;4.50;3.37;;;;;;;;;;5096717;28;20214;-78
2022/06/14 03:55:25;;;;;;;3.97;3.20;;;;;;;;;;5073547;28;20199;-77
2022/06/14 03:59:20;;;;;;;7.03;3.53;;;;;;;;;;5073584;28;20183;-77
2022/06/14 04:02:56;;;;;;;5.37;3.13;;;;;;;;;;5069712;28;20693;-77
2022/06/14 04:06:22;;;;;;;7.03;3.00;;;;;;;;;;5102484;28;20179;-77
2022/06/14 04:09:40;;;;;;;4.57;3.30;;;;;;;;;;5066448;28;20184;-77
2022/06/14 04:13:09;;;;;;;4.17;3.00;;;;;;;;;;5058198;28;20216;-77
2022/06/14 04:16:19;;;;;;;6.57;3.10;;;;;;;;;;5065858;28;20195;-76
2022/06/14 04:19:46;;;;;;;5.40;3.10;;;;;;;;;;5075939;28;20662;-77
2022/06/14 04:23:26;;;;;;;5.67;3.43;;;;;;;;;;5064303;28;20674;-77
2022/06/14 04:26:45;;;;;;;5.10;3.13;;;;;;;;;;5073166;28;20199;-77
2022/06/14 04:30:11;;;;;;;4.00;2.90;;;;;;;;;;5064734;28;20176;-77
2022/06/14 04:33:21;;;;;;;4.93;3.17;;;;;;;;;;5064618;28;20207;-77
2022/06/14 04:36:51;;;;;;;7.17;3.40;;;;;;;;;;5064173;28;20184;-77
2022/06/14 04:40:06;;;;;;;4.10;3.23;;;;;;;;;;5052925;28;20175;-77
2022/06/14 04:43:15;;;;;;;6.47;3.40;;;;;;;;;;5064681;28;20513;-77
2022/06/14 04:46:26;;;;;;;6.77;3.00;;;;;;;;;;5077141;28;20172;-80
2022/06/14 04:49:43;;;;;;;5.53;3.43;;;;;;;;;;5069047;28;20180;-80
2022/06/14 04:52:59;;;;;;;8.60;3.77;;;;;;;;;;5077191;28;20587;-80
2022/06/14 04:56:13;;;;;;;5.53;3.50;;;;;;;;;;5065542;28;20188;-79
2022/06/14 04:59:26;;;;;;;3.90;3.20;;;;;;;;;;5065403;28;20184;-80
2022/06/14 05:02:36;;;;;;;6.93;3.13;;;;;;;;;;5064837;28;20203;-79
2022/06/14 05:05:44;;;;;;;6.40;3.40;;;;;;;;;;5065026;28;20183;-80
2022/06/14 05:09:08;;;;;;;5.83;3.40;;;;;;;;;;5064012;28;20176;-80
2022/06/14 05:12:37;;;;;;;8.83;3.57;;;;;;;;;;5076593;28;20223;-80
2022/06/14 05:15:58;;;;;;;5.13;3.47;;;;;;;;;;5076075;28;20188;-80
2022/06/14 05:19:10;;;;;;;9.40;3.70;;;;;;;;;;5054175;28;20179;-80
2022/06/14 05:22:30;;;;;;;5.07;3.17;;;;;;;;;;5053825;28;20203;-80
2022/06/14 05:25:53;;;;;;;7.87;3.87;;;;;;;;;;5065982;28;20176;-80
2022/06/14 05:29:00;;;;;;;5.43;3.57;;;;;;;;;;5066409;28;20168;-80
2022/06/14 05:32:40;;;;;;;6.40;3.53;;;;;;;;;;5077387;28;20674;-80
2022/06/14 05:35:47;;;;;;;8.23;3.63;;;;;;;;;;5065771;28;20188;-79
2022/06/14 05:39:06;;;;;;;6.57;3.70;;;;;;;;;;5053415;28;20179;-79
2022/06/14 05:42:17;;;;;;;6.17;3.30;;;;;;;;;;5065111;28;20211;-80
2022/06/14 05:45:23;;;;;;;9.03;3.73;;;;;;;;;;5065215;28;20524;-79
2022/06/14 05:48:32;;;;;;;6.07;3.67;;;;;;;;;;5076923;28;20180;-79
2022/06/14 05:51:46;;;;;;;16.90;4.23;;;;;;;;;;5052804;28;20219;-79
2022/06/14 05:54:57;;;;;;;9.40;3.80;;;;;;;;;;5051474;28;20192;-79
2022/06/14 05:58:13;;;;;;;7.43;3.90;;;;;;;;;;5062643;28;20187;-79
2022/06/14 06:01:22;;;;;;;8.20;3.97;;;;;;;;;;5073997;28;20219;-80
2022/06/14 06:04:32;;;;;;;5.60;3.73;;;;;;;;;;5050957;28;20358;-79
2022/06/14 06:07:41;;;;;;;6.73;4.20;;;;;;;;;;5063089;28;20175;-79
2022/06/14 06:10:49;;;;;;;6.47;3.40;;;;;;;;;;5062846;28;20180;-79
2022/06/14 06:14:10;;;;;;;12.53;4.37;;;;;;;;;;5075084;28;20199;-79
2022/06/14 06:17:23;;;;;;;5.90;3.90;;;;;;;;;;5063037;28;20188;-78
2022/06/14 06:20:47;;;;;;;6.53;4.00;;;;;;;;;;5051005;28;20183;-78
2022/06/14 06:24:00;;;;;;;7.87;3.43;;;;;;;;;;5050811;28;20179;-78
2022/06/14 06:27:11;;;;;;;6.17;4.77;;;;;;;;;;5073126;28;20524;-78
2022/06/14 06:30:25;;;;;;;6.93;4.27;;;;;;;;;;5049979;28;20179;-79
2022/06/14 06:33:36;;;;;;;7.60;4.20;;;;;;;;;;5072911;28;20199;-78
2022/06/14 06:36:55;;;;;;;5.63;3.90;;;;;;;;;;5073554;28;20191;-78
2022/06/14 06:40:05;;;;;;;7.37;4.40;;;;;;;;;;5051179;28;20615;-78
2022/06/14 06:43:11;;;;;;;7.33;4.10;;;;;;;;;;5061954;28;20184;-78
2022/06/14 06:46:19;;;;;;;9.33;4.17;;;;;;;;;;5062253;28;20176;-78
2022/06/14 06:49:30;;;;;;;6.17;4.27;;;;;;;;;;5061808;28;20627;-77
2022/06/14 06:52:56;;;;;;;8.43;3.77;;;;;;;;;;5062085;28;20215;-78
2022/06/14 06:56:06;;;;;;;6.17;3.60;;;;;;;;;;5063388;28;20188;-78
2022/06/14 06:59:34;;;;;;;8.40;4.70;;;;;;;;;;5062921;28;20179;-78
2022/06/14 07:02:52;;;;;;;7.70;4.57;;;;;;;;;;5061995;28;20215;-78
2022/06/14 07:05:59;;;;;;;5.27;4.20;;;;;;;;;;5051360;28;20180;-78
2022/06/14 07:09:16;;;;;;;7.13;4.53;;;;;;;;;;5075082;28;20172;-78
2022/06/14 07:12:45;;;;;;;7.57;4.60;;;;;;;;;;5063169;28;20219;-78
2022/06/14 07:16:00;;;;;;;6.67;4.30;;;;;;;;;;5063808;28;20187;-78
2022/06/14 07:19:35;;;;;;;5.53;4.07;;;;;;;;;;5075237;28;20184;-78
2022/06/14 07:22:46;;;;;;;6.07;3.77;;;;;;;;;;5063824;28;20211;-78
2022/06/14 07:26:04;;;;;;;6.87;3.83;;;;;;;;;;5052684;28;20206;-79
2022/06/14 07:29:20;;;;;;;9.40;4.67;;;;;;;;;;5075431;28;20199;-78
2022/06/14 07:32:27;;;;;;;6.33;3.90;;;;;;;;;;5063354;28;20551;-78
2022/06/14 07:35:51;;;;;;;7.20;3.90;;;;;;;;;;5075337;28;20180;-78
2022/06/14 07:39:07;;;;;;;12.53;4.33;;;;;;;;;;5072987;28;20180;-78
2022/06/14 07:42:17;;;;;;;7.80;3.77;;;;;;;;;;5060573;28;20220;-78
2022/06/14 07:45:46;;;;;;;7.73;3.50;;;;;;;;;;5078458;28;20168;-78
2022/06/14 07:49:16;;;;;;;4.60;3.40;;;;;;;;;;5079309;28;20180;-78
2022/06/14 07:52:55;;;;;;;5.90;3.33;;;;;;;;;;5056059;28;20214;-78
2022/06/14 07:56:09;;;;;;;6.70;3.13;;;;;;;;;;5067501;28;20180;-79
2022/06/14 07:59:18;;;;;;;5.27;3.50;;;;;;;;;;5079267;28;20182;-79
2022/06/14 08:02:37;;;;;;;7.13;3.67;;;;;;;;;;5056770;28;20222;-79
2022/06/14 08:05:46;;;;;;;6.83;3.50;;;;;;;;;;5078585;28;20184;-79
2022/06/14 08:09:10;;;;;;;6.03;3.30;;;;;;;;;;5078691;28;20188;-79
2022/06/14 08:12:20;;;;;;;5.18;3.20;;;;;;;;;;5068270;28;20216;-79
2022/06/14 08:15:41;;;;;;;5.78;3.13;;;;;;;;;;5054852;28;20169;-79
2022/06/14 08:18:57;;;;;;;6.13;3.05;;;;;;;;;;5079632;28;20522;-80
2022/06/14 08:22:06;;;;;;;7.55;3.08;;;;;;;;;;5055886;28;20214;-80
2022/06/14 08:25:15;;;;;;;4.25;2.60;;;;;;;;;;5067492;28;20181;-80
2022/06/14 08:28:26;;;;;;;7.30;3.08;;;;;;;;;;5067596;28;20181;-80
2022/06/14 08:31:38;;;;;;;5.88;2.80;;;;;;;;;;5078801;28;20685;-78
2022/06/14 08:34:57;;;;;;;9.82;3.10;;;;;;;;;;5063732;28;20218;-78
2022/06/14 08:38:11;;;;;;;6.95;3.45;;;;;;;;;;5076559;28;20185;-79
2022/06/14 08:41:35;;;;;;;7.00;2.65;;;;;;;;;;5077619;28;20219;-79
2022/06/14 08:44:47;;;;;;;6.55;2.95;;;;;;;;;;5077732;28;20176;-79
2022/06/14 08:48:20;;;;;;;6.22;2.90;;;;;;;;;;5074445;28;20183;-79
2022/06/14 08:51:50;;;;;;;5.72;2.85;;;;;;;;;;5078651;28;20221;-79
2022/06/14 08:55:07;;;;;;;7.05;3.42;;;;;;;;;;5071257;28;20301;-79
2022/06/14 08:58:33;;;;;;;5.13;2.53;;;;;;;;;;5062864;28;20642;-79
2022/06/14 09:01:49;;;;;;;8.45;3.05;;;;;;;;;;5052048;28;20564;-79
2022/06/14 09:05:29;;;;;;;3.65;2.53;;;;;;;;;;5062653;28;20548;-79
2022/06/14 09:09:26;;;;;;;6.32;2.90;;;;;;;;;;5063175;28;20626;-79
2022/06/14 09:12:48;;;;;;;5.07;2.65;;;;;;;;;;5063089;28;20219;-78
2022/06/14 09:16:29;;;;;;;5.15;2.95;;;;;;;;;;5075388;28;20168;-78
2022/06/14 09:20:18;;;;;;;5.28;2.63;;;;;;;;;;5074639;28;20188;-79
2022/06/14 09:23:29;;;;;;;4.97;2.70;;;;;;;;;;5063141;28;20535;-79
2022/06/14 09:27:03;;;;;;;10.27;3.03;;;;;;;;;;5074017;28;20175;-79
2022/06/14 09:30:42;;;;;;;3.42;2.33;;;;;;;;;;5070555;28;20195;-79
2022/06/14 09:34:07;;;;;;;5.82;2.60;;;;;;;;;;5064085;28;20196;-79
2022/06/14 09:37:24;;;;;;;4.75;2.45;;;;;;;;;;5074631;28;20184;-79
2022/06/14 09:40:31;;;;;;;3.35;2.13;;;;;;;;;;5076002;28;20172;-79
2022/06/14 09:43:47;;;;;;;6.20;2.80;;;;;;;;;;5075105;28;20172;-79
2022/06/14 09:47:06;;;;;;;5.35;2.35;;;;;;;;;;5053613;28;20183;-80
2022/06/14 09:50:42;;;;;;;6.55;2.30;;;;;;;;;;5076298;28;20180;-79
2022/06/14 09:54:05;;;;;;;4.28;2.40;;;;;;;;;;5075502;28;20200;-79
2022/06/14 09:57:22;;;;;;;4.78;2.25;;;;;;;;;;5076079;28;20188;-79
2022/06/14 10:00:36;;;;;;;4.80;1.83;;;;;;;;;;5063446;28;20191;-79
2022/06/14 10:04:04;;;;;;;6.07;2.05;;;;;;;;;;5074814;28;20199;-79
2022/06/14 10:07:26;;;;;;;4.20;2.42;;;;;;;;;;5063524;28;20180;-79
2022/06/14 10:10:47;;;;;;;5.25;2.15;;;;;;;;;;5076162;28;20176;-79
2022/06/14 10:14:01;;;;;;;4.00;2.13;;;;;;;;;;5062965;28;20659;-79
2022/06/14 10:17:23;;;;;;;4.63;2.05;;;;;;;;;;5075098;28;20528;-79
2022/06/14 10:20:48;;;;;;;7.07;2.25;;;;;;;;;;5063277;28;20180;-79
2022/06/14 10:24:02;;;;;;;5.10;1.90;;;;;;;;;;5063860;28;20173;-79
2022/06/14 10:30:55;;;;;;;4.70;2.53;;;;;;;;;;5074660;28;20215;-80
2022/06/14 10:34:11;;;;;;;5.00;2.55;;;;;;;;;;5062298;28;20204;-80
2022/06/14 10:37:29;;;;;;;5.22;2.40;;;;;;;;;;5074297;28;20188;-79
2022/06/14 10:40:41;;;;;;;4.60;2.55;;;;;;;;;;5074429;28;20180;-79
2022/06/14 10:44:18;;;;;;;3.22;2.20;;;;;;;;;;5073881;28;20538;-79
2022/06/14 10:47:42;;;;;;;7.72;2.50;;;;;;;;;;5074721;28;20187;-79
2022/06/14 10:51:10;;;;;;;5.18;2.28;;;;;;;;;;5061939;28;20526;-79
2022/06/14 10:54:28;;;;;;;3.90;2.40;;;;;;;;;;5073382;28;20207;-80
2022/06/14 10:57:45;;;;;;;4.65;2.25;;;;;;;;;;5074540;28;20184;-80
2022/06/14 11:00:58;;;;;;;4.13;2.10;;;;;;;;;;5061473;28;20279;-81
2022/06/14 11:04:29;;;;;;;5.88;2.28;;;;;;;;;;5063754;28;20195;-80
2022/06/14 11:07:56;;;;;;;5.85;2.65;;;;;;;;;;5061137;28;20191;-80
2022/06/14 11:11:10;;;;;;;5.45;2.70;;;;;;;;;;5087763;28;20216;-79
2022/06/14 11:14:51;;;;;;;7.60;2.40;;;;;;;;;;5061971;28;20203;-80
2022/06/14 11:18:08;;;;;;;3.95;2.38;;;;;;;;;;5077179;28;20184;-81
2022/06/14 11:21:29;;;;;;;4.10;2.25;;;;;;;;;;5079310;28;20698;-80
2022/06/14 11:24:46;;;;;;;4.40;2.25;;;;;;;;;;5098016;28;20176;-80
2022/06/14 11:28:09;;;;;;;4.35;2.58;;;;;;;;;;5087314;28;20176;-80
2022/06/14 11:31:37;;;;;;;4.95;2.00;;;;;;;;;;5090593;28;20219;-80
2022/06/14 11:34:55;;;;;;;6.07;2.60;;;;;;;;;;5094246;28;20203;-80
2022/06/14 11:38:36;;;;;;;4.82;2.63;;;;;;;;;;5065494;28;20196;-80
2022/06/14 11:41:47;;;;;;;7.60;2.50;;;;;;;;;;5077082;28;20698;-80
2022/06/14 11:44:57;;;;;;;3.50;1.83;;;;;;;;;;5078727;28;20191;-80
2022/06/14 11:48:41;;;;;;;3.88;2.30;;;;;;;;;;5076331;28;20205;-80
2022/06/14 11:52:16;;;;;;;3.63;2.17;;;;;;;;;;5080281;28;20623;-80
2022/06/14 11:55:43;;;;;;;6.30;2.70;;;;;;;;;;5077081;28;20200;-81
2022/06/14 11:59:42;;;;;;;4.22;2.47;;;;;;;;;;5066738;28;20180;-80
2022/06/14 12:03:23;;;;;;;4.47;2.53;;;;;;;;;;5039989;28;20211;-79
2022/06/14 12:06:36;;;;;;;3.83;2.08;;;;;;;;;;5076489;28;20196;-80
2022/06/14 12:10:18;;;;;;;5.18;2.30;;;;;;;;;;5077362;28;20180;-80
2022/06/14 12:13:41;;;;;;;6.10;2.55;;;;;;;;;;5096088;28;20183;-80
2022/06/14 12:17:04;;;;;;;5.82;2.58;;;;;;;;;;5083745;28;20196;-80
2022/06/14 12:20:12;;;;;;;3.58;2.13;;;;;;;;;;5076328;28;20538;-80
2022/06/14 12:23:25;;;;;;;4.55;2.13;;;;;;;;;;5075841;28;20196;-79
2022/06/14 12:26:42;;;;;;;7.15;2.33;;;;;;;;;;5068201;28;20172;-79
2022/06/14 12:29:51;;;;;;;3.47;2.20;;;;;;;;;;5080855;28;20535;-79
2022/06/14 12:33:29;;;;;;;5.57;2.75;;;;;;;;;;5097092;28;20176;-80
2022/06/14 12:36:48;;;;;;;4.45;2.17;;;;;;;;;;5069113;28;20183;-79
2022/06/14 12:40:09;;;;;;;4.57;2.22;;;;;;;;;;5095863;28;20187;-79
2022/06/14 12:43:22;;;;;;;3.95;2.00;;;;;;;;;;5071361;28;20195;-79
2022/06/14 12:46:33;;;;;;;5.95;1.83;;;;;;;;;;5066833;28;20188;-80
2022/06/14 12:49:43;;;;;;;4.03;2.40;;;;;;;;;;5074263;28;20188;-79
2022/06/14 12:53:09;;;;;;;3.75;2.20;;;;;;;;;;5064460;28;20212;-79
2022/06/14 12:56:17;;;;;;;3.38;2.00;;;;;;;;;;5070195;28;20518;-79
2022/06/14 12:59:43;;;;;;;4.40;2.30;;;;;;;;;;5059851;28;20196;-80
2022/06/14 13:03:03;;;;;;;4.50;2.20;;;;;;;;;;5063752;28;20207;-79
2022/06/14 13:06:29;;;;;;;8.38;2.20;;;;;;;;;;5076169;28;20180;-80
2022/06/14 13:10:00;;;;;;;3.58;2.08;;;;;;;;;;5090714;28;20199;-80
2022/06/14 13:13:20;;;;;;;3.38;1.98;;;;;;;;;;5085564;28;20200;-80
2022/06/14 13:16:43;;;;;;;5.05;2.17;;;;;;;;;;5076389;28;20624;-80
2022/06/14 13:19:58;;;;;;;3.80;1.90;;;;;;;;;;5088910;28;20543;-81
2022/06/14 13:23:18;;;;;;;5.50;2.40;;;;;;;;;;5082115;28;20199;-81
2022/06/14 13:26:32;;;;;;;4.43;2.58;;;;;;;;;;5061469;28;20176;-82
2022/06/14 13:29:47;;;;;;;5.32;1.95;;;;;;;;;;5050821;28;20180;-81
2022/06/14 13:33:04;;;;;;;7.35;2.13;;;;;;;;;;5050963;28;20223;-80
2022/06/14 13:36:33;;;;;;;7.22;2.45;;;;;;;;;;5052375;28;20215;-80
2022/06/14 13:39:40;;;;;;;5.90;2.30;;;;;;;;;;5071446;28;20549;-80
2022/06/14 13:42:53;;;;;;;3.88;2.10;;;;;;;;;;5084914;28;20210;-81
2022/06/14 13:46:15;;;;;;;3.55;2.40;;;;;;;;;;5089142;28;20180;-80
2022/06/14 13:49:25;;;;;;;3.55;2.00;;;;;;;;;;5097805;28;20183;-80
2022/06/14 13:52:36;;;;;;;4.65;2.17;;;;;;;;;;5079887;28;20215;-80
2022/06/14 13:55:46;;;;;;;4.90;2.00;;;;;;;;;;5093968;28;20207;-80
2022/06/14 13:59:01;;;;;;;4.00;2.33;;;;;;;;;;5091853;28;20294;-82
2022/06/14 14:02:24;;;;;;;5.13;2.20;;;;;;;;;;5082152;28;20216;-81
2022/06/14 14:05:34;;;;;;;3.65;2.20;;;;;;;;;;5092140;28;20179;-81
2022/06/14 14:08:57;;;;;;;5.10;2.00;;;;;;;;;;5085282;28;20199;-80
2022/06/14 14:12:13;;;;;;;5.00;2.10;;;;;;;;;;5094048;28;20223;-80
2022/06/14 14:15:43;;;;;;;3.45;1.80;;;;;;;;;;5084576;28;20685;-80
2022/06/14 14:19:01;;;;;;;6.05;2.25;;;;;;;;;;5096047;28;20171;-80
2022/06/14 14:22:12;;;;;;;4.28;1.77;;;;;;;;;;5083437;28;20214;-80
2022/06/14 14:25:35;;;;;;;4.97;2.08;;;;;;;;;;5063700;28;20172;-80
2022/06/14 14:28:39;;;;;;;4.75;1.75;;;;;;;;;;5094238;28;20191;-80
2022/06/14 14:31:49;;;;;;;3.90;2.08;;;;;;;;;;5072986;28;20579;-80
2022/06/14 14:35:15;;;;;;;5.35;2.30;;;;;;;;;;5094882;28;20207;-80
2022/06/14 14:38:40;;;;;;;3.58;2.00;;;;;;;;;;5094815;28;20187;-79
2022/06/14 14:41:52;;;;;;;6.57;2.45;;;;;;;;;;5083324;28;20223;-80
2022/06/14 14:45:09;;;;;;;3.03;2.00;;;;;;;;;;5096007;28;20175;-80
2022/06/14 14:48:13;;;;;;;3.97;2.00;;;;;;;;;;5082972;28;20184;-80
2022/06/14 14:51:33;;;;;;;6.47;2.28;;;;;;;;;;5067390;28;20567;-80
2022/06/14 14:55:03;;;;;;;4.57;2.33;;;;;;;;;;5080377;28;20176;-80
2022/06/14 14:58:15;;;;;;;6.20;2.20;;;;;;;;;;5069993;28;20176;-80
2022/06/14 15:08:28;;;;;;;4.45;2.00;;;;;;;;;;5084332;28;20188;-80
2022/06/14 15:11:44;;;;;;;7.90;2.53;;;;;;;;;;5067541;28;20219;-79
2022/06/14 15:15:13;;;;;;;4.95;2.47;;;;;;;;;;5072413;28;20195;-80
2022/06/14 15:21:51;;;;;;;4.28;2.20;;;;;;;;;;5080476;28;20219;-81
2022/06/14 15:24:59;;;;;;;5.07;2.15;;;;;;;;;;5100202;28;20187;-80
2022/06/14 15:28:03;;;;;;;7.70;2.28;;;;;;;;;;5082237;28;20187;-81
2022/06/14 15:31:08;;;;;;;5.95;2.35;;;;;;;;;;5068132;28;20219;-80
2022/06/14 15:34:21;;;;;;;5.15;1.70;;;;;;;;;;5093123;28;20195;-80
2022/06/14 15:37:38;;;;;;;3.67;2.00;;;;;;;;;;5088338;28;20167;-81
2022/06/14 15:40:43;;;;;;;5.65;2.30;;;;;;;;;;5068837;28;20188;-81
2022/06/14 15:43:59;;;;;;;2.70;1.95;;;;;;;;;;5060807;28;20187;-80
2022/06/14 15:47:04;;;;;;;6.97;2.33;;;;;;;;;;5079027;28;20184;-80
2022/06/14 15:50:26;;;;;;;4.30;2.03;;;;;;;;;;5078378;28;20659;-80
2022/06/14 15:53:42;;;;;;;3.35;1.83;;;;;;;;;;5087110;28;20182;-80
2022/06/14 15:57:03;;;;;;;15.35;3.15;;;;;;;;;;5094043;28;20207;-80
2022/06/14 16:00:16;;;;;;;3.75;1.77;;;;;;;;;;5095648;28;20197;-80
2022/06/14 16:03:31;;;;;;;6.50;2.53;;;;;;;;;;5064425;28;20208;-80
2022/06/14 16:06:52;;;;;;;3.33;2.10;;;;;;;;;;5054709;28;20175;-81
2022/06/14 16:10:26;;;;;;;2.67;1.90;;;;;;;;;;5084713;28;20175;-81
2022/06/14 16:13:45;;;;;;;10.02;2.90;;;;;;;;;;5067807;28;20198;-81
2022/06/14 16:16:59;;;;;;;5.45;2.30;;;;;;;;;;5080724;28;20208;-80
2022/06/14 16:20:19;;;;;;;16.33;3.03;;;;;;;;;;5068545;28;20193;-80
2022/06/14 16:23:24;;;;;;;3.42;2.00;;;;;;;;;;5070360;28;20188;-80
2022/06/14 16:26:41;;;;;;;4.93;2.22;;;;;;;;;;5070203;28;20172;-81
2022/06/14 16:30:04;;;;;;;6.28;2.33;;;;;;;;;;5074464;28;20644;-80
2022/06/14 16:33:25;;;;;;;5.83;2.50;;;;;;;;;;5096970;28;20185;-79
2022/06/14 16:36:44;;;;;;;3.33;2.33;;;;;;;;;;5085740;28;20209;-78
2022/06/14 16:40:01;;;;;;;5.93;2.70;;;;;;;;;;5093660;28;20193;-79
2022/06/14 16:43:17;;;;;;;6.77;2.53;;;;;;;;;;5077708;28;20185;-79
2022/06/14 16:46:32;;;;;;;4.23;2.40;;;;;;;;;;5096217;28;20504;-78
2022/06/14 16:50:00;;;;;;;3.97;2.47;;;;;;;;;;5074564;28;20659;-79
2022/06/14 16:53:31;;;;;;;7.70;2.60;;;;;;;;;;5074412;28;20186;-79
2022/06/14 16:56:47;;;;;;;5.17;2.47;;;;;;;;;;5075331;28;20207;-80
2022/06/14 17:00:18;;;;;;;5.97;2.60;;;;;;;;;;5075667;28;20192;-81
2022/06/14 17:03:40;;;;;;;3.87;2.50;;;;;;;;;;5066790;28;20196;-80
2022/06/14 17:07:15;;;;;;;5.77;2.60;;;;;;;;;;5069378;28;20194;-81
2022/06/14 17:10:26;;;;;;;9.40;2.83;;;;;;;;;;5065010;28;20186;-80
2022/06/14 17:13:48;;;;;;;4.33;2.33;;;;;;;;;;5055671;28;20198;-80
2022/06/14 17:17:00;;;;;;;4.27;2.73;;;;;;;;;;5065088;28;20214;-80
2022/06/14 17:20:15;;;;;;;4.53;2.17;;;;;;;;;;5070187;28;20193;-80
2022/06/14 17:23:30;;;;;;;6.93;2.97;;;;;;;;;;5082562;28;20185;-80
2022/06/14 17:30:13;;;;;;;7.37;2.80;;;;;;;;;;5063727;28;20192;-80
2022/06/14 17:33:30;;;;;;;5.80;2.57;;;;;;;;;;5084655;28;20192;-80
2022/06/14 17:36:37;;;;;;;4.43;2.77;;;;;;;;;;5082215;28;20678;-79
2022/06/14 17:39:54;;;;;;;7.63;2.40;;;;;;;;;;5097343;28;20180;-79
2022/06/14 17:43:05;;;;;;;4.53;2.27;;;;;;;;;;5075920;28;20189;-79
2022/06/14 17:46:25;;;;;;;7.10;2.20;;;;;;;;;;5075986;28;20180;-78
2022/06/14 17:49:45;;;;;;;9.33;2.57;;;;;;;;;;5076187;28;20180;-79
2022/06/14 17:52:55;;;;;;;3.37;2.30;;;;;;;;;;5076989;28;20215;-79
2022/06/14 17:56:23;;;;;;;4.63;2.70;;;;;;;;;;5055194;28;20216;-80
2022/06/14 17:59:49;;;;;;;6.07;2.10;;;;;;;;;;5076248;28;20186;-81
2022/06/14 18:03:04;;;;;;;3.37;2.23;;;;;;;;;;5062803;28;20215;-80
2022/06/14 18:06:09;;;;;;;3.67;2.40;;;;;;;;;;5052414;28;20168;-80
2022/06/14 18:09:14;;;;;;;3.23;2.50;;;;;;;;;;5067351;28;20527;-80
2022/06/14 18:12:22;;;;;;;6.43;2.33;;;;;;;;;;5074682;28;20215;-80
2022/06/14 18:15:54;;;;;;;4.33;2.70;;;;;;;;;;5063370;28;20520;-79
2022/06/14 18:20:50;;;;;;;3.17;2.30;;;;;;;;;;5051846;28;20638;-80
2022/06/14 18:22:42;;;;;;;6.10;2.47;;;;;;;;;;5080151;28;20215;-80
2022/06/14 18:25:52;;;;;;;4.23;2.33;;;;;;;;;;5071465;28;20183;-80
2022/06/14 18:29:17;;;;;;;6.67;2.80;;;;;;;;;;5087944;28;20179;-81
2022/06/14 18:32:25;;;;;;;7.27;2.70;;;;;;;;;;5067390;28;20223;-81
2022/06/14 18:35:32;;;;;;;3.70;2.40;;;;;;;;;;5091123;28;20198;-80
2022/06/14 18:38:41;;;;;;;9.40;3.00;;;;;;;;;;5052009;28;20199;-80
2022/06/14 18:41:46;;;;;;;4.07;2.07;;;;;;;;;;5073366;28;20214;-81
2022/06/14 18:45:13;;;;;;;4.83;2.60;;;;;;;;;;5078873;28;20199;-80
2022/06/14 18:48:34;;;;;;;4.70;2.70;;;;;;;;;;5089029;28;20187;-80
2022/06/14 18:51:41;;;;;;;6.37;2.50;;;;;;;;;;5055468;28;20215;-80
2022/06/14 18:55:12;;;;;;;4.67;2.73;;;;;;;;;;5076191;28;20188;-82
2022/06/14 18:58:37;;;;;;;5.73;2.60;;;;;;;;;;5075209;28;20183;-80
2022/06/14 19:01:42;;;;;;;3.77;2.90;;;;;;;;;;5075024;28;20215;-80
2022/06/14 19:04:46;;;;;;;5.00;2.80;;;;;;;;;;5063094;28;20195;-80
2022/06/14 19:08:03;;;;;;;4.13;3.10;;;;;;;;;;5077210;28;20164;-80
2022/06/14 19:11:28;;;;;;;3.20;2.83;;;;;;;;;;5077947;28;20215;-80
2022/06/14 19:15:01;;;;;;;3.93;2.60;;;;;;;;;;5074362;28;20511;-80
2022/06/14 19:18:30;;;;;;;5.10;2.63;;;;;;;;;;5065478;28;20179;-80
2022/06/14 19:21:50;;;;;;;4.77;3.10;;;;;;;;;;5074753;28;20222;-80
2022/06/14 19:25:32;;;;;;;5.63;2.90;;;;;;;;;;5087519;28;20194;-79
2022/06/14 19:28:39;;;;;;;4.70;3.03;;;;;;;;;;5084679;28;20183;-80
2022/06/14 19:31:49;;;;;;;5.23;2.70;;;;;;;;;;5095583;28;20685;-80
2022/06/14 19:34:59;;;;;;;4.37;2.73;;;;;;;;;;5090637;28;20187;-80
2022/06/14 19:38:07;;;;;;;6.20;3.20;;;;;;;;;;5097728;28;20210;-80
2022/06/14 19:41:29;;;;;;;6.50;3.30;;;;;;;;;;5091390;28;20218;-80
2022/06/14 19:44:40;;;;;;;4.90;3.07;;;;;;;;;;5066236;28;20180;-80
2022/06/14 19:48:02;;;;;;;3.80;3.03;;;;;;;;;;5066415;28;20179;-80
2022/06/14 19:51:11;;;;;;;5.43;3.23;;;;;;;;;;5056918;28;20215;-79
2022/06/14 19:54:23;;;;;;;4.70;3.33;;;;;;;;;;5067809;28;20531;-79
2022/06/14 19:57:29;;;;;;;10.43;3.20;;;;;;;;;;5097560;28;20207;-80
2022/06/14 20:00:43;;;;;;;7.40;3.50;;;;;;;;;;5082050;28;20192;-79
2022/06/14 20:03:50;;;;;;;4.63;3.57;;;;;;;;;;5060353;28;20211;-79
2022/06/14 20:07:00;;;;;;;5.37;3.30;;;;;;;;;;5065373;28;20187;-80